Time;durP1;ratioP1;P1;durP2;ratioP2;P2;SDS_P1;SDS_P2;PMS_P1;PMS_P2;Temp;Humidity;BMP_temperature;BMP_pressure;BME280_temperature;BME280_humidity;BME280_pressure;Samples;Min_cycle;Max_cycle;Signal;HPM_P1;HPM_P2
2023/05/17 00:01:22;;;;;;;16.70;3.80;;;;;;;6.44;100.00;102329.13;4881978;29;20033;-81
2023/05/17 00:03:48;;;;;;;15.90;3.22;;;;;;;6.43;100.00;102334.66;4866607;29;20056;-81
2023/05/17 00:06:13;;;;;;;15.75;3.60;;;;;;;6.40;100.00;102333.13;4898560;29;20060;-81
2023/05/17 00:08:38;;;;;;;18.80;3.50;;;;;;;6.36;100.00;102331.72;4866398;29;20044;-81
2023/05/17 00:11:04;;;;;;;15.13;3.30;;;;;;;6.34;100.00;102331.03;4898446;29;20119;-81
2023/05/17 00:13:29;;;;;;;15.30;3.20;;;;;;;6.31;100.00;102328.66;4866174;29;20040;-81
2023/05/17 00:15:54;;;;;;;16.03;4.13;;;;;;;6.29;100.00;102338.75;4881811;29;20029;-81
2023/05/17 00:18:20;;;;;;;16.42;3.42;;;;;;;6.28;100.00;102331.66;4882039;29;20040;-81
2023/05/17 00:20:45;;;;;;;15.45;3.75;;;;;;;6.25;100.00;102337.34;4866202;29;20040;-81
2023/05/17 00:23:13;;;;;;;15.77;3.50;;;;;;;6.25;100.00;102346.25;4866719;29;20040;-81
2023/05/17 00:25:39;;;;;;;13.95;3.28;;;;;;;6.21;100.00;102339.47;4898679;29;20040;-81
2023/05/17 00:28:04;;;;;;;14.50;3.80;;;;;;;6.17;100.00;102331.84;4866486;29;20450;-81
2023/05/17 00:30:29;;;;;;;15.40;3.33;;;;;;;6.17;100.00;102332.69;4898283;29;20035;-81
2023/05/17 00:32:55;;;;;;;12.67;3.17;;;;;;;6.16;100.00;102336.38;4881375;29;20043;-81
2023/05/17 00:35:20;;;;;;;11.67;3.00;;;;;;;6.17;100.00;102337.22;4865869;29;20048;-81
2023/05/17 00:37:46;;;;;;;18.67;3.78;;;;;;;6.14;100.00;102335.66;4866165;29;20049;-81
2023/05/17 00:40:14;;;;;;;20.37;3.43;;;;;;;6.12;100.00;102343.91;4881447;29;20044;-81
2023/05/17 00:42:40;;;;;;;14.80;3.40;;;;;;;6.10;100.00;102337.00;4898010;29;20032;-81
2023/05/17 00:45:06;;;;;;;19.87;4.27;;;;;;;6.09;100.00;102327.19;4850578;29;20028;-81
2023/05/17 00:47:31;;;;;;;13.90;3.20;;;;;;;6.08;100.00;102328.19;4881117;29;20311;-81
2023/05/17 00:49:56;;;;;;;16.17;3.30;;;;;;;6.09;100.00;102325.34;4881183;29;20227;-81
2023/05/17 00:52:22;;;;;;;10.30;3.10;;;;;;;6.07;100.00;102326.50;4897950;29;20629;-81
2023/05/17 00:54:48;;;;;;;15.37;4.03;;;;;;;6.07;100.00;102334.59;4866072;29;20402;-81
2023/05/17 00:57:15;;;;;;;19.52;3.90;;;;;;;6.05;100.00;102337.41;4866070;29;20123;-81
2023/05/17 00:59:43;;;;;;;20.00;3.58;;;;;;;6.04;100.00;102335.75;4866154;29;20051;-81
2023/05/17 01:02:09;;;;;;;19.88;4.32;;;;;;;6.05;100.00;102337.41;4866391;29;20033;-81
2023/05/17 01:04:35;;;;;;;18.45;4.18;;;;;;;6.04;100.00;102334.88;4881206;29;20029;-81
2023/05/17 01:07:03;;;;;;;17.42;3.88;;;;;;;6.02;100.00;102326.94;4865599;29;20048;-81
2023/05/17 01:09:29;;;;;;;10.32;3.40;;;;;;;6.01;100.00;102324.38;4869627;29;20033;-81
2023/05/17 01:11:55;;;;;;;16.93;3.80;;;;;;;6.02;100.00;102336.88;4885267;29;20044;-81
2023/05/17 01:14:50;;;;;;;12.83;3.53;;;;;;;5.98;100.00;102339.03;4901075;29;20060;-81
2023/05/17 01:17:38;;;;;;;16.50;4.20;;;;;;;5.96;100.00;102339.16;4884374;29;20269;-81
2023/05/17 01:20:15;;;;;;;11.27;3.42;;;;;;;5.94;100.00;102334.91;4900587;29;20056;-81
2023/05/17 01:22:48;;;;;;;13.50;3.95;;;;;;;5.94;100.00;102330.34;4884103;29;20032;-79
2023/05/17 01:25:35;;;;;;;22.92;4.03;;;;;;;5.92;100.00;102331.47;4884637;29;20389;-79
2023/05/17 01:28:02;;;;;;;23.17;3.72;;;;;;;5.91;100.00;102322.56;4884260;29;20485;-79
2023/05/17 01:30:31;;;;;;;14.43;3.67;;;;;;;5.92;100.00;102332.34;4901037;29;20055;-80
2023/05/17 01:32:57;;;;;;;16.45;4.15;;;;;;;5.88;100.00;102336.34;4901027;29;20063;-81
2023/05/17 01:35:24;;;;;;;14.85;3.80;;;;;;;5.86;100.00;102343.72;4884353;29;20032;-81
2023/05/17 01:37:52;;;;;;;14.63;3.83;;;;;;;5.85;100.00;102343.88;4868642;29;20036;-81
2023/05/17 01:40:18;;;;;;;21.00;3.85;;;;;;;5.84;100.00;102336.78;4868623;29;20153;-81
2023/05/17 01:42:47;;;;;;;17.13;3.83;;;;;;;5.82;100.00;102334.22;4853649;29;20041;-81
2023/05/17 01:45:25;;;;;;;19.70;3.97;;;;;;;5.82;100.00;102334.22;4884146;29;20039;-81
2023/05/17 01:48:11;;;;;;;15.80;3.85;;;;;;;5.81;100.00;102332.53;4883622;29;20106;-81
2023/05/17 01:50:38;;;;;;;14.80;4.45;;;;;;;5.84;100.00;102332.22;4900720;29;20469;-81
2023/05/17 01:53:19;;;;;;;18.17;3.95;;;;;;;5.83;100.00;102333.25;4883885;29;20048;-82
2023/05/17 01:55:55;;;;;;;20.58;4.18;;;;;;;5.84;100.00;102336.78;4900675;29;20039;-81
2023/05/17 01:58:24;;;;;;;23.25;4.32;;;;;;;5.83;100.00;102330.56;4883889;29;20457;-81
2023/05/17 02:00:53;;;;;;;16.58;4.00;;;;;;;5.85;100.00;102333.94;4900493;29;20040;-81
2023/05/17 02:03:19;;;;;;;24.75;4.53;;;;;;;5.86;100.00;102337.47;4883695;29;20119;-81
2023/05/17 02:05:45;;;;;;;26.55;4.28;;;;;;;5.85;100.00;102327.72;4883310;29;20060;-80
2023/05/17 02:08:10;;;;;;;19.67;4.18;;;;;;;5.86;100.00;102342.84;4883714;29;20088;-81
2023/05/17 02:10:36;;;;;;;16.98;4.30;;;;;;;5.84;100.00;102340.31;4868700;29;20050;-81
2023/05/17 02:13:02;;;;;;;20.13;4.70;;;;;;;5.79;100.00;102335.38;4883321;29;20381;-81
2023/05/17 02:15:27;;;;;;;13.10;4.45;;;;;;;5.84;100.00;102339.47;4899989;29;20084;-81
2023/05/17 02:17:53;;;;;;;16.83;4.80;;;;;;;5.83;100.00;102341.34;4883760;29;20045;-81
2023/05/17 02:20:18;;;;;;;25.23;4.50;;;;;;;5.86;100.00;102342.84;4882717;29;20389;-81
2023/05/17 02:22:43;;;;;;;22.90;4.63;;;;;;;5.87;100.00;102347.25;4899860;29;20111;-81
2023/05/17 02:25:09;;;;;;;22.13;4.35;;;;;;;5.86;100.00;102342.84;4883854;29;20367;-81
2023/05/17 02:27:35;;;;;;;19.95;4.68;;;;;;;5.86;100.00;102335.66;4883176;29;20036;-81
2023/05/17 02:30:00;;;;;;;21.40;4.77;;;;;;;5.87;100.00;102336.47;4900159;29;20039;-81
2023/05/17 02:32:27;;;;;;;24.38;5.20;;;;;;;5.88;100.00;102338.19;4883038;29;20029;-81
2023/05/17 02:34:53;;;;;;;24.58;4.90;;;;;;;5.88;100.00;102330.09;4899666;29;20501;-81
2023/05/17 02:37:19;;;;;;;23.83;5.27;;;;;;;5.87;100.00;102334.63;4852251;29;20036;-81
2023/05/17 02:39:44;;;;;;;21.00;5.35;;;;;;;5.88;100.00;102332.81;4883633;29;20041;-81
2023/05/17 02:42:10;;;;;;;22.30;5.23;;;;;;;5.86;100.00;102338.34;4883472;29;20550;-81
2023/05/17 02:44:35;;;;;;;18.67;5.23;;;;;;;5.85;100.00;102352.78;4899426;29;20095;-81
2023/05/17 02:47:01;;;;;;;23.42;5.30;;;;;;;5.83;100.00;102353.94;4882924;29;20039;-81
2023/05/17 02:49:26;;;;;;;19.25;5.05;;;;;;;5.84;100.00;102361.03;4867334;29;20048;-81
2023/05/17 02:51:51;;;;;;;19.77;4.90;;;;;;;5.86;100.00;102359.03;4883048;29;20058;-81
2023/05/17 02:54:17;;;;;;;20.53;5.17;;;;;;;5.91;100.00;102356.75;4866930;29;20132;-81
2023/05/17 02:56:42;;;;;;;28.33;5.93;;;;;;;5.97;100.00;102358.88;4882434;29;20478;-81
2023/05/17 02:59:08;;;;;;;23.85;5.65;;;;;;;6.04;100.00;102356.44;4882671;29;20284;-81
2023/05/17 03:01:33;;;;;;;18.57;5.13;;;;;;;6.11;100.00;102357.53;4882543;29;20028;-81
2023/05/17 03:03:59;;;;;;;27.80;5.93;;;;;;;6.19;100.00;102359.50;4852022;29;20040;-81
2023/05/17 03:06:24;;;;;;;19.92;5.22;;;;;;;6.26;100.00;102360.56;4851045;29;20049;-81
2023/05/17 03:08:50;;;;;;;20.57;5.20;;;;;;;6.31;100.00;102364.53;4852444;29;20056;-81
2023/05/17 03:11:15;;;;;;;27.53;5.30;;;;;;;6.40;100.00;102367.34;4851278;29;20481;-81
2023/05/17 03:13:40;;;;;;;29.50;5.90;;;;;;;6.47;100.00;102363.88;4882371;29;20614;-81
2023/05/17 03:16:08;;;;;;;23.30;5.70;;;;;;;6.54;100.00;102376.75;4867475;29;20041;-81
2023/05/17 03:18:33;;;;;;;31.80;6.00;;;;;;;6.60;100.00;102366.22;4867105;29;20044;-81
2023/05/17 03:20:59;;;;;;;25.00;5.57;;;;;;;6.66;100.00;102370.16;4866816;29;20040;-81
2023/05/17 03:23:24;;;;;;;24.48;5.25;;;;;;;6.70;100.00;102376.91;4882090;29;20111;-81
2023/05/17 03:25:49;;;;;;;20.73;5.53;;;;;;;6.75;100.00;102371.94;4852174;29;20097;-81
2023/05/17 03:28:15;;;;;;;19.30;6.63;;;;;;;6.78;100.00;102376.19;4882223;29;20040;-81
2023/05/17 03:30:40;;;;;;;16.03;4.87;;;;;;;6.84;100.00;102383.66;4866444;29;20549;-81
2023/05/17 03:33:06;;;;;;;18.93;5.13;;;;;;;6.89;100.00;102384.03;4866705;29;20029;-81
2023/05/17 03:35:31;;;;;;;27.17;5.95;;;;;;;6.90;100.00;102383.03;4866331;29;20059;-81
2023/05/17 03:37:56;;;;;;;14.57;5.20;;;;;;;6.95;100.00;102386.16;4882252;29;20060;-81
2023/05/17 03:40:22;;;;;;;25.70;5.10;;;;;;;7.00;100.00;102393.78;4881867;29;20044;-81
2023/05/17 03:42:47;;;;;;;19.23;5.47;;;;;;;7.06;100.00;102384.19;4882281;29;20044;-81
2023/05/17 03:45:14;;;;;;;17.75;5.43;;;;;;;7.11;100.00;102389.97;4882099;29;20123;-81
2023/05/17 03:47:41;;;;;;;22.23;5.53;;;;;;;7.15;100.00;102385.97;4881749;29;20067;-81
2023/05/17 03:50:08;;;;;;;22.25;5.50;;;;;;;7.20;100.00;102389.91;4867256;29;20065;-81
2023/05/17 03:52:34;;;;;;;18.58;5.15;;;;;;;7.28;100.00;102382.88;4866380;29;20083;-81
2023/05/17 03:55:02;;;;;;;20.17;4.60;;;;;;;7.33;100.00;102394.06;4882051;29;20482;-81
2023/05/17 03:57:28;;;;;;;16.52;5.18;;;;;;;7.34;100.00;102396.59;4866535;29;20473;-81
2023/05/17 03:59:53;;;;;;;21.63;5.70;;;;;;;7.35;100.00;102390.22;4866738;29;20052;-81
2023/05/17 04:02:19;;;;;;;24.40;5.40;;;;;;;7.37;100.00;102400.84;4881813;29;20028;-81
2023/05/17 04:04:51;;;;;;;15.53;5.20;;;;;;;7.37;100.00;102401.69;4898606;29;20389;-81
2023/05/17 04:07:17;;;;;;;20.05;4.95;;;;;;;7.38;100.00;102405.22;4881976;29;20039;-81
2023/05/17 04:09:43;;;;;;;17.90;5.50;;;;;;;7.36;100.00;102396.44;4881824;29;20389;-81
2023/05/17 04:12:09;;;;;;;19.83;6.30;;;;;;;7.34;100.00;102404.69;4881705;29;20044;-81
2023/05/17 04:14:36;;;;;;;16.80;5.30;;;;;;;7.30;100.00;102399.78;4866762;29;20037;-81
2023/05/17 04:17:01;;;;;;;20.75;5.65;;;;;;;7.26;100.00;102403.78;4882239;29;20135;-82
2023/05/17 04:19:26;;;;;;;16.10;5.60;;;;;;;7.22;100.00;102402.38;4882337;29;20041;-81
2023/05/17 04:21:53;;;;;;;15.80;5.57;;;;;;;7.18;100.00;102399.16;4866061;29;20115;-81
2023/05/17 04:24:19;;;;;;;29.35;5.93;;;;;;;7.15;100.00;102407.56;4881820;29;20044;-81
2023/05/17 04:26:44;;;;;;;21.47;6.07;;;;;;;7.14;100.00;102416.66;4881627;29;20063;-81
2023/05/17 04:29:09;;;;;;;23.00;6.67;;;;;;;7.14;100.00;102417.50;4882251;29;20072;-80
2023/05/17 04:31:35;;;;;;;18.60;6.60;;;;;;;7.15;100.00;102407.56;4865650;29;20051;-81
2023/05/17 04:34:01;;;;;;;23.02;7.07;;;;;;;7.14;100.00;102422.91;4881574;29;20769;-81
2023/05/17 04:36:27;;;;;;;26.30;7.32;;;;;;;7.14;100.00;102424.75;4881824;29;20136;-81
2023/05/17 04:38:52;;;;;;;17.97;6.17;;;;;;;7.15;100.00;102429.16;4850696;29;20513;-81
2023/05/17 04:41:18;;;;;;;26.50;6.90;;;;;;;7.15;100.00;102431.88;4865914;29;20131;-81
2023/05/17 04:43:43;;;;;;;35.25;7.80;;;;;;;7.18;100.00;102431.56;4867722;29;20131;-81
2023/05/17 04:46:08;;;;;;;18.87;7.10;;;;;;;7.18;100.00;102437.78;4902165;29;20047;-81
2023/05/17 04:48:34;;;;;;;21.63;7.33;;;;;;;7.22;100.00;102441.06;4869513;29;20064;-82
2023/05/17 04:51:05;;;;;;;22.03;6.90;;;;;;;7.26;100.00;102445.13;4884618;29;20037;-81
2023/05/17 04:53:31;;;;;;;23.02;6.95;;;;;;;7.30;100.00;102442.97;4870191;29;20084;-81
2023/05/17 04:55:57;;;;;;;22.75;7.28;;;;;;;7.34;100.00;102442.50;4885119;29;20044;-81
2023/05/17 04:58:23;;;;;;;26.40;7.57;;;;;;;7.36;100.00;102448.59;4901590;29;20071;-81
2023/05/17 05:00:49;;;;;;;24.42;8.50;;;;;;;7.39;100.00;102452.84;4869658;29;20064;-81
2023/05/17 05:03:14;;;;;;;22.65;7.85;;;;;;;7.41;100.00;102453.56;4854013;29;20037;-81
2023/05/17 05:05:39;;;;;;;27.57;6.97;;;;;;;7.43;100.00;102453.41;4884956;29;20076;-81
2023/05/17 05:08:08;;;;;;;23.57;7.80;;;;;;;7.47;100.00;102460.16;4884878;29;20476;-81
2023/05/17 05:10:34;;;;;;;22.83;7.38;;;;;;;7.50;100.00;102462.53;4868861;29;20160;-81
2023/05/17 05:12:59;;;;;;;20.07;7.13;;;;;;;7.54;100.00;102459.41;4884558;29;20127;-81
2023/05/17 05:15:25;;;;;;;16.47;7.10;;;;;;;7.60;100.00;102465.16;4884544;29;20064;-81
2023/05/17 05:17:50;;;;;;;27.25;7.18;;;;;;;7.63;100.00;102467.56;4884372;29;20498;-81
2023/05/17 05:20:16;;;;;;;25.70;7.38;;;;;;;7.68;100.00;102470.66;4884404;29;20431;-81
2023/05/17 05:22:41;;;;;;;20.50;6.97;;;;;;;7.73;100.00;102471.03;4854155;29;20041;-81
2023/05/17 05:25:07;;;;;;;20.77;6.97;;;;;;;7.79;100.00;102478.50;4868876;29;20040;-81
2023/05/17 05:27:34;;;;;;;18.65;6.60;;;;;;;7.84;100.00;102487.00;4901219;29;20056;-81
2023/05/17 05:30:00;;;;;;;21.25;6.38;;;;;;;7.90;100.00;102488.22;4901320;29;20064;-81
2023/05/17 05:32:26;;;;;;;26.75;6.90;;;;;;;8.00;100.00;102480.00;4901013;29;20063;-81
2023/05/17 05:34:51;;;;;;;24.57;6.00;;;;;;;8.05;100.00;102492.03;4868983;29;20480;-81
2023/05/17 05:37:18;;;;;;;17.67;6.37;;;;;;;8.10;100.00;102491.56;4884279;29;20330;-82
2023/05/17 05:39:44;;;;;;;31.50;6.45;;;;;;;8.15;100.00;102486.53;4900764;29;20068;-82
2023/05/17 05:42:10;;;;;;;19.88;5.22;;;;;;;8.21;100.00;102487.75;4883916;29;20425;-82
2023/05/17 05:44:35;;;;;;;19.50;6.33;;;;;;;8.37;100.00;102489.69;4883499;29;20095;-82
2023/05/17 05:47:00;;;;;;;24.83;6.20;;;;;;;8.50;100.00;102498.25;4883643;29;20060;-83
2023/05/17 05:49:26;;;;;;;20.93;5.73;;;;;;;8.55;100.00;102495.91;4868991;29;20478;-82
2023/05/17 05:51:51;;;;;;;23.35;5.60;;;;;;;8.63;100.00;102495.09;4853308;29;20032;-80
2023/05/17 05:54:17;;;;;;;21.70;5.70;;;;;;;8.81;100.00;102495.00;4852187;29;20029;-81
2023/05/17 05:56:42;;;;;;;25.93;5.60;;;;;;;9.04;100.00;102507.94;4868140;29;20063;-82
2023/05/17 05:59:07;;;;;;;20.47;5.93;;;;;;;9.26;100.00;102510.03;4868050;29;20040;-81
2023/05/17 06:01:33;;;;;;;17.80;5.27;;;;;;;9.50;100.00;102521.09;4883729;29;20040;-81
2023/05/17 06:03:59;;;;;;;26.15;6.20;;;;;;;9.57;100.00;102511.28;4883496;29;20496;-82
2023/05/17 06:06:24;;;;;;;17.93;4.80;;;;;;;9.60;100.00;102513.66;4867399;29;20053;-81
2023/05/17 06:08:49;;;;;;;22.20;5.05;;;;;;;9.57;100.00;102517.53;4883446;29;20430;-81
2023/05/17 06:11:17;;;;;;;18.47;4.43;;;;;;;9.57;100.00;102522.94;4900225;29;20037;-82
2023/05/17 06:13:42;;;;;;;17.65;4.93;;;;;;;9.54;100.00;102528.72;4899891;29;20130;-83
2023/05/17 06:16:08;;;;;;;15.77;4.57;;;;;;;9.56;100.00;102531.25;4883165;29;20386;-83
2023/05/17 06:18:33;;;;;;;22.70;3.77;;;;;;;9.56;100.00;102529.38;4899851;29;20036;-82
2023/05/17 06:20:58;;;;;;;20.53;4.10;;;;;;;9.63;100.00;102537.69;4882825;29;20040;-83
2023/05/17 06:23:24;;;;;;;17.02;3.45;;;;;;;9.69;100.00;102538.91;4867499;29;20040;-83
2023/05/17 06:25:51;;;;;;;20.03;4.40;;;;;;;9.74;100.00;102544.66;4867468;29;20045;-83
2023/05/17 06:28:16;;;;;;;18.98;3.80;;;;;;;9.76;100.00;102540.75;4882786;29;20039;-83
2023/05/17 06:30:42;;;;;;;21.20;3.20;;;;;;;9.81;100.00;102540.25;4882442;29;20131;-83
2023/05/17 06:33:07;;;;;;;13.77;2.90;;;;;;;9.95;100.00;102541.41;4900027;29;20085;-83
2023/05/17 06:35:34;;;;;;;20.13;3.30;;;;;;;9.96;100.00;102546.66;4867512;29;20040;-82
2023/05/17 06:37:59;;;;;;;19.37;3.27;;;;;;;10.01;100.00;102538.91;4867376;29;20033;-82
2023/05/17 06:40:24;;;;;;;12.63;3.00;;;;;;;10.08;100.00;102549.88;4867139;29;20120;-83
2023/05/17 06:42:50;;;;;;;17.40;3.83;;;;;;;10.18;100.00;102547.00;4882907;29;20047;-84
2023/05/17 06:45:15;;;;;;;11.30;3.63;;;;;;;10.41;100.00;102549.03;4867482;29;20084;-83
2023/05/17 06:47:41;;;;;;;12.23;2.57;;;;;;;10.65;100.00;102548.16;4882780;29;20539;-84
2023/05/17 06:50:07;;;;;;;13.77;2.13;;;;;;;10.90;96.65;102550.78;4866667;29;20091;-84
2023/05/17 06:52:33;;;;;;;10.50;2.30;;;;;;;11.11;92.23;102545.56;4866686;29;20041;-84
2023/05/17 06:55:02;;;;;;;11.40;1.80;;;;;;;11.24;89.71;102551.28;4866266;29;20482;-84
2023/05/17 06:57:28;;;;;;;10.30;1.40;;;;;;;11.23;86.34;102554.16;4866611;29;20122;-83
2023/05/17 06:59:53;;;;;;;14.60;2.33;;;;;;;11.05;84.30;102549.84;4882221;29;20081;-84
2023/05/17 07:02:19;;;;;;;11.90;2.30;;;;;;;10.82;83.43;102544.34;4882516;29;20466;-84
2023/05/17 07:04:44;;;;;;;11.90;2.20;;;;;;;10.71;85.21;102555.59;4866994;29;20063;-84
2023/05/17 07:07:10;;;;;;;12.37;1.53;;;;;;;10.64;81.21;102558.13;4882578;29;20112;-84
2023/05/17 07:09:36;;;;;;;16.10;2.27;;;;;;;10.59;79.58;102563.25;4866705;29;20348;-84
2023/05/17 07:12:05;;;;;;;19.17;2.90;;;;;;;10.62;81.33;102564.78;4882611;29;20048;-84
2023/05/17 07:14:30;;;;;;;11.63;1.77;;;;;;;10.68;81.58;102559.47;4867322;29;20037;-84
2023/05/17 07:16:56;;;;;;;12.47;1.90;;;;;;;10.71;79.59;102553.69;4882642;29;20043;-84
2023/05/17 07:19:21;;;;;;;16.08;1.90;;;;;;;10.78;76.99;102561.19;4898943;29;20379;-84
2023/05/17 07:21:47;;;;;;;8.13;1.50;;;;;;;10.77;77.57;102559.47;4851319;29;20037;-83
2023/05/17 07:24:12;;;;;;;12.07;1.50;;;;;;;10.81;76.84;102560.81;4851275;29;20394;-83
2023/05/17 07:26:38;;;;;;;12.53;1.43;;;;;;;10.96;73.75;102569.91;4851123;29;20158;-83
2023/05/17 07:29:06;;;;;;;13.23;2.20;;;;;;;11.00;73.24;102579.41;4851242;29;20044;-84
2023/05/17 07:31:32;;;;;;;13.33;1.70;;;;;;;11.00;71.63;102570.44;4899022;29;20084;-84
2023/05/17 07:33:57;;;;;;;15.40;1.95;;;;;;;10.99;72.81;102571.44;4898538;29;20032;-84
2023/05/17 07:36:23;;;;;;;9.53;1.37;;;;;;;11.08;72.29;102573.09;4881952;29;20450;-83
2023/05/17 07:38:48;;;;;;;8.03;1.40;;;;;;;11.13;72.79;102586.13;4882080;29;20045;-83
2023/05/17 07:41:15;;;;;;;17.20;1.70;;;;;;;11.16;70.46;102583.06;4882113;29;20124;-84
2023/05/17 07:43:41;;;;;;;10.65;1.67;;;;;;;11.18;71.51;102575.59;4882693;29;20100;-83
2023/05/17 07:46:07;;;;;;;12.82;1.70;;;;;;;11.29;70.52;102575.19;4866598;29;20046;-83
2023/05/17 07:48:32;;;;;;;14.17;1.53;;;;;;;11.39;69.83;102575.81;4898596;29;20040;-83
2023/05/17 07:50:57;;;;;;;6.17;1.40;;;;;;;11.52;68.84;102594.25;4866238;29;20037;-83
2023/05/17 07:53:26;;;;;;;13.10;1.67;;;;;;;11.70;68.87;102579.53;4850867;29;20044;-85
2023/05/17 07:55:51;;;;;;;12.00;1.60;;;;;;;11.88;68.07;102585.50;4881763;29;20029;-83
2023/05/17 07:58:16;;;;;;;13.97;1.97;;;;;;;12.10;69.60;102577.56;4881493;29;20036;-82
2023/05/17 08:00:42;;;;;;;13.30;1.55;;;;;;;12.28;64.07;102578.09;4881710;29;20043;-83
2023/05/17 08:03:07;;;;;;;13.23;1.50;;;;;;;12.48;61.88;102580.28;4898206;29;20393;-84
2023/05/17 08:05:33;;;;;;;11.17;1.60;;;;;;;12.73;62.52;102585.47;4881259;29;20096;-83
2023/05/17 08:07:59;;;;;;;11.03;2.00;;;;;;;13.04;62.76;102589.88;4881111;29;20457;-83
2023/05/17 08:10:25;;;;;;;12.73;2.28;;;;;;;13.42;65.37;102590.59;4850809;29;20507;-84
2023/05/17 08:12:52;;;;;;;10.20;1.85;;;;;;;13.80;64.28;102584.06;4881805;29;20028;-84
2023/05/17 08:15:17;;;;;;;11.10;1.70;;;;;;;13.91;61.61;102597.19;4898425;29;20040;-83
2023/05/17 08:17:42;;;;;;;13.17;1.93;;;;;;;13.92;63.94;102595.28;4882236;29;20037;-84
2023/05/17 08:20:08;;;;;;;18.77;1.60;;;;;;;13.95;63.49;102586.72;4869581;29;20601;-83
2023/05/17 08:22:37;;;;;;;13.38;1.60;;;;;;;13.85;62.22;102589.78;4885202;29;20032;-83
2023/05/17 08:25:03;;;;;;;8.85;1.55;;;;;;;13.76;63.21;102594.53;4886093;29;20040;-83
2023/05/17 08:27:31;;;;;;;16.13;1.67;;;;;;;13.86;64.74;102594.19;4902036;29;20044;-83
2023/05/17 08:29:56;;;;;;;13.37;1.80;;;;;;;13.82;61.75;102596.47;4885369;29;20135;-83
2023/05/17 08:32:25;;;;;;;13.63;1.70;;;;;;;13.94;63.70;102595.97;4869720;29;20120;-84
2023/05/17 08:34:51;;;;;;;9.32;1.80;;;;;;;14.08;58.63;102603.22;4869541;29;20043;-83
2023/05/17 08:37:17;;;;;;;10.50;1.40;;;;;;;14.35;57.25;102595.25;4884878;29;20033;-83
2023/05/17 08:39:43;;;;;;;7.83;1.50;;;;;;;14.63;55.71;102595.28;4869262;29;20340;-83
2023/05/17 08:42:08;;;;;;;12.15;1.50;;;;;;;14.71;53.10;102586.09;4885305;29;20071;-83
2023/05/17 08:44:37;;;;;;;7.03;1.30;;;;;;;14.69;53.12;102590.88;4885185;29;20493;-83
2023/05/17 08:47:10;;;;;;;10.80;1.35;;;;;;;14.83;53.15;102591.84;4869370;29;20080;-83
2023/05/17 08:49:36;;;;;;;11.32;1.42;;;;;;;14.89;52.60;102591.03;4885000;29;20032;-83
2023/05/17 08:52:08;;;;;;;6.60;1.20;;;;;;;14.64;49.18;102588.75;4901733;29;20176;-83
2023/05/17 08:54:34;;;;;;;7.10;1.25;;;;;;;14.36;51.26;102602.41;4856296;29;20036;-83
2023/05/17 08:57:03;;;;;;;12.70;1.42;;;;;;;14.23;52.14;102599.56;4884482;29;20060;-83
2023/05/17 08:59:32;;;;;;;6.07;1.02;;;;;;;14.19;52.88;102602.69;4884646;29;20037;-83
2023/05/17 09:02:01;;;;;;;5.90;1.10;;;;;;;14.28;53.27;102594.38;4854499;29;20037;-84
2023/05/17 09:04:29;;;;;;;10.07;1.40;;;;;;;14.36;51.60;102595.06;4884604;29;20035;-83
2023/05/17 09:06:54;;;;;;;8.82;1.00;;;;;;;14.38;49.27;102600.34;4885108;29;20504;-84
2023/05/17 09:09:20;;;;;;;7.20;1.07;;;;;;;14.43;52.19;102600.56;4884882;29;20033;-83
2023/05/17 09:11:46;;;;;;;8.80;1.45;;;;;;;14.48;50.71;102602.69;4884733;29;20415;-83
2023/05/17 09:14:15;;;;;;;8.18;1.50;;;;;;;14.63;52.14;102588.97;4884709;29;20036;-83
2023/05/17 09:16:42;;;;;;;10.50;1.30;;;;;;;14.73;51.66;102595.78;4884394;29;20446;-82
2023/05/17 09:19:12;;;;;;;11.02;1.20;;;;;;;14.85;51.63;102589.72;4869569;29;20040;-82
2023/05/17 09:21:38;;;;;;;7.00;1.42;;;;;;;15.00;49.73;102600.53;4869757;29;20513;-83
2023/05/17 09:24:03;;;;;;;8.60;1.40;;;;;;;15.18;50.44;102594.53;4900907;29;20064;-82
2023/05/17 09:26:38;;;;;;;7.63;1.15;;;;;;;15.02;50.57;102602.03;4868787;29;20199;-83
2023/05/17 09:29:08;;;;;;;13.47;1.40;;;;;;;14.94;50.02;102595.88;4900824;29;20112;-82
2023/05/17 09:31:34;;;;;;;9.23;1.52;;;;;;;14.94;50.02;102595.88;4900884;29;20028;-82
2023/05/17 09:34:01;;;;;;;8.35;1.65;;;;;;;14.98;51.06;102602.63;4868807;29;20044;-82
2023/05/17 09:36:26;;;;;;;7.43;1.20;;;;;;;14.91;49.02;102599.84;4900688;29;20055;-83
2023/05/17 09:38:58;;;;;;;7.25;1.80;;;;;;;14.69;48.23;102599.94;4868588;29;20481;-83
2023/05/17 09:41:31;;;;;;;6.10;1.40;;;;;;;14.64;49.28;102607.06;4884099;29;20037;-81
2023/05/17 09:44:00;;;;;;;9.35;1.25;;;;;;;14.83;49.80;102597.28;4868699;29;20036;-80
2023/05/17 09:46:26;;;;;;;7.15;1.15;;;;;;;15.04;48.73;102594.47;4883634;29;20044;-80
2023/05/17 09:48:53;;;;;;;4.68;1.25;;;;;;;15.00;46.58;102595.94;4883754;29;20052;-80
2023/05/17 09:51:19;;;;;;;7.60;1.67;;;;;;;14.81;48.46;102591.19;4883636;29;20028;-81
2023/05/17 09:53:44;;;;;;;12.60;1.77;;;;;;;14.70;49.92;102593.44;4883862;29;20044;-80
2023/05/17 09:56:10;;;;;;;6.97;1.20;;;;;;;14.65;50.68;102590.47;4868779;29;20114;-80
2023/05/17 09:58:37;;;;;;;9.68;1.58;;;;;;;14.72;47.37;102602.28;4883929;29;20041;-80
2023/05/17 10:01:04;;;;;;;6.28;1.05;;;;;;;14.79;47.95;102602.31;4884119;29;20052;-80
2023/05/17 10:03:35;;;;;;;6.30;1.20;;;;;;;14.97;48.33;102604.53;4883720;29;20115;-81
2023/05/17 10:06:05;;;;;;;9.05;1.20;;;;;;;15.40;48.95;102590.63;4883334;29;20039;-81
2023/05/17 10:08:32;;;;;;;15.13;1.50;;;;;;;15.96;47.79;102586.78;4900181;29;20043;-81
2023/05/17 10:11:04;;;;;;;7.80;1.35;;;;;;;16.56;47.66;102585.06;4883758;29;20040;-80
2023/05/17 10:13:34;;;;;;;9.73;1.40;;;;;;;17.12;46.77;102598.22;4883167;29;20036;-80
2023/05/17 10:16:01;;;;;;;6.60;1.40;;;;;;;17.56;43.90;102605.84;4883437;29;20032;-81
2023/05/17 10:18:28;;;;;;;9.07;1.60;;;;;;;17.69;42.14;102590.13;4900365;29;20068;-81
2023/05/17 10:20:55;;;;;;;7.83;1.10;;;;;;;17.82;43.69;102600.19;4900306;29;20091;-81
2023/05/17 10:23:21;;;;;;;9.25;1.48;;;;;;;18.22;43.17;102597.16;4899752;29;20033;-81
2023/05/17 10:25:47;;;;;;;7.78;1.25;;;;;;;18.38;42.71;102594.91;4883349;29;20044;-81
2023/05/17 10:28:16;;;;;;;9.82;1.85;;;;;;;18.37;42.16;102593.25;4899546;29;20101;-81
2023/05/17 10:30:42;;;;;;;9.82;1.27;;;;;;;18.41;41.01;102594.47;4882634;29;20041;-81
2023/05/17 10:33:10;;;;;;;7.00;1.50;;;;;;;18.18;41.18;102595.09;4899768;29;20064;-81
2023/05/17 10:35:40;;;;;;;10.30;2.08;;;;;;;18.21;41.78;102598.22;4899868;29;20037;-83
2023/05/17 10:38:05;;;;;;;8.85;1.27;;;;;;;18.30;42.68;102592.47;4882737;29;20029;-82
2023/05/17 10:40:35;;;;;;;6.27;1.30;;;;;;;18.32;42.06;102588.44;4898615;29;20029;-82
2023/05/17 10:43:03;;;;;;;6.22;1.65;;;;;;;18.64;41.37;102581.97;4852803;29;20033;-82
2023/05/17 10:45:31;;;;;;;5.45;1.15;;;;;;;18.69;40.45;102588.47;4883025;29;20402;-82
2023/05/17 10:48:05;;;;;;;5.95;1.50;;;;;;;18.82;40.38;102575.66;4882836;29;20040;-82
2023/05/17 10:50:31;;;;;;;10.47;1.40;;;;;;;19.03;40.54;102574.38;4883061;29;20040;-83
2023/05/17 10:52:58;;;;;;;6.47;1.33;;;;;;;19.05;39.35;102583.25;4882648;29;20584;-82
2023/05/17 10:55:33;;;;;;;7.75;1.42;;;;;;;19.28;38.91;102572.38;4882674;29;20071;-81
2023/05/17 10:58:25;;;;;;;5.97;1.58;;;;;;;19.84;40.78;102568.63;4899137;29;20040;-82
2023/05/17 11:00:55;;;;;;;7.47;1.67;;;;;;;20.12;36.82;102560.53;4878168;29;20053;-82
2023/05/17 11:03:28;;;;;;;4.13;1.10;;;;;;;20.14;36.17;102569.38;4883220;29;20223;-82
2023/05/17 11:06:20;;;;;;;7.57;1.50;;;;;;;20.24;37.28;102560.53;4882370;29;20031;-82
2023/05/17 11:09:06;;;;;;;4.57;1.20;;;;;;;20.53;37.56;102562.56;4882704;29;20032;-82
2023/05/17 11:11:32;;;;;;;5.85;1.50;;;;;;;20.50;34.32;102567.47;4899100;29;20504;-82
2023/05/17 11:14:03;;;;;;;8.40;1.70;;;;;;;20.90;34.94;102556.78;4882518;29;20047;-82
2023/05/17 11:16:36;;;;;;;8.15;1.60;;;;;;;22.40;32.61;102559.25;4898865;29;20036;-82
2023/05/17 11:19:08;;;;;;;5.22;1.50;;;;;;;25.25;28.63;102555.94;4866363;29;20484;-83